Terminal Aerodrome Forecast
Issued by NWS Charleston, WV

Current Version | Previous Version | Graphics & Text | Print | Product List | Glossary On
Versions: 1 2 3 4 5 6 7 8 9 10 11 12 13 14 15 16 17 18 19 20 21 22
095
FTUS41 KRLX 230836 AAA
TAFCRW
TAF AMD
KCRW 230836Z 2309/2406 00000KT 6SM BR FEW001
      TEMPO 2309/2310 4SM BR SCT001
     FM231000 00000KT 2SM BR SCT001
      TEMPO 2310/2312 1/4SM FG OVC001
     FM231200 00000KT 5SM BR SCT001
     FM231300 00000KT P6SM SKC
     FM231700 00000KT P6SM FEW050
     FM240100 00000KT P6SM SKC=

USA.gov is the U.S. government's official web portal to all federal, state and local government web resources and services.